Time;durP1;ratioP1;P1;durP2;ratioP2;P2;SDS_P1;SDS_P2;PMS_P1;PMS_P2;Temp;Humidity;BMP_temperature;BMP_pressure;BME280_temperature;BME280_humidity;BME280_pressure;Samples;Min_cycle;Max_cycle;Signal;HPM_P1;HPM_P2
2023/01/30 00:01:20;;;;;;;39.28;21.33;;;6.40;99.90;;;;;;5070618;28;20028;-61
2023/01/30 00:03:46;;;;;;;39.08;21.33;;;6.40;99.90;;;;;;5079033;28;20402;-61
2023/01/30 00:06:12;;;;;;;37.45;21.25;;;6.40;99.90;;;;;;5054346;28;20040;-62
2023/01/30 00:08:38;;;;;;;40.47;21.73;;;6.40;99.90;;;;;;5076944;28;20402;-62
2023/01/30 00:11:05;;;;;;;37.17;21.63;;;6.40;99.90;;;;;;5071171;28;20035;-62
2023/01/30 00:13:31;;;;;;;38.42;21.45;;;6.50;99.90;;;;;;5038378;28;20045;-64
2023/01/30 00:15:56;;;;;;;43.08;21.95;;;6.50;99.90;;;;;;5062404;28;20509;-63
2023/01/30 00:18:22;;;;;;;41.22;22.17;;;6.40;99.90;;;;;;5065553;28;20033;-64
2023/01/30 00:20:48;;;;;;;39.05;21.80;;;6.50;99.90;;;;;;5054034;28;20036;-61
2023/01/30 00:23:13;;;;;;;37.58;20.15;;;6.50;99.90;;;;;;5045677;28;20068;-63
2023/01/30 00:25:39;;;;;;;39.95;22.38;;;6.50;99.90;;;;;;5029636;28;20068;-60
2023/01/30 00:28:04;;;;;;;39.72;21.30;;;6.50;99.90;;;;;;5062588;28;20544;-63
2023/01/30 00:30:30;;;;;;;41.70;21.42;;;6.50;99.90;;;;;;5071931;28;20029;-63
2023/01/30 00:32:57;;;;;;;38.85;22.00;;;6.50;99.90;;;;;;5067862;28;20040;-61
2023/01/30 00:35:27;;;;;;;39.30;21.13;;;6.50;99.90;;;;;;5068214;28;20067;-63
2023/01/30 00:37:56;;;;;;;33.53;19.02;;;6.40;99.90;;;;;;5068380;28;20093;-61
2023/01/30 00:40:24;;;;;;;37.83;20.63;;;6.50;99.90;;;;;;5056322;28;20032;-63
2023/01/30 00:48:19;;;;;;;34.80;19.92;;;6.50;99.90;;;;;;5023765;28;20045;-60
2023/01/30 00:50:45;;;;;;;39.75;20.65;;;6.50;99.90;;;;;;5060525;28;20486;-60
2023/01/30 00:53:12;;;;;;;38.20;20.17;;;6.50;99.90;;;;;;5070005;28;20059;-62
2023/01/30 00:55:39;;;;;;;37.72;19.50;;;6.50;99.90;;;;;;5058054;28;20441;-64
2023/01/30 00:58:05;;;;;;;36.20;19.42;;;6.50;99.90;;;;;;5066885;28;20046;-63
2023/01/30 01:00:31;;;;;;;36.88;20.30;;;6.60;99.90;;;;;;5061109;28;20442;-62
2023/01/30 01:02:57;;;;;;;33.92;19.98;;;6.60;99.90;;;;;;5051720;28;20139;-60
2023/01/30 01:05:22;;;;;;;34.47;19.50;;;6.60;99.90;;;;;;5059851;28;20029;-63
2023/01/30 01:07:48;;;;;;;29.60;16.80;;;6.70;99.90;;;;;;5064166;28;20079;-63
2023/01/30 01:10:15;;;;;;;30.45;18.17;;;6.70;99.90;;;;;;5056678;28;20040;-64
2023/01/30 01:12:44;;;;;;;35.03;18.45;;;6.70;99.90;;;;;;5059918;28;20052;-64
2023/01/30 01:15:11;;;;;;;33.20;16.15;;;6.60;99.90;;;;;;5034405;28;20044;-63
2023/01/30 01:17:38;;;;;;;32.47;16.20;;;6.70;99.90;;;;;;5040700;28;20401;-62
2023/01/30 01:20:05;;;;;;;31.50;15.32;;;6.70;99.90;;;;;;5051788;28;20086;-63
2023/01/30 01:22:31;;;;;;;30.10;14.65;;;6.70;99.90;;;;;;5039184;28;20048;-61
2023/01/30 01:24:56;;;;;;;30.00;14.60;;;6.80;99.90;;;;;;5048480;28;20454;-61
2023/01/30 01:27:22;;;;;;;30.85;13.85;;;6.80;99.90;;;;;;5065181;28;20430;-61
2023/01/30 01:29:48;;;;;;;24.17;13.23;;;6.90;99.90;;;;;;5076126;28;20089;-62
2023/01/30 01:32:13;;;;;;;28.20;14.00;;;6.80;99.90;;;;;;5057296;28;20040;-62
2023/01/30 01:34:40;;;;;;;25.15;13.25;;;6.80;99.90;;;;;;5050377;28;20036;-65
2023/01/30 01:37:05;;;;;;;28.77;13.77;;;6.80;99.90;;;;;;5041532;28;20375;-63
2023/01/30 01:42:16;;;;;;;22.92;11.35;;;6.80;99.90;;;;;;5062098;28;20441;-61
2023/01/30 01:45:12;;;;;;;21.52;10.63;;;6.80;99.90;;;;;;5044418;28;20071;-63
2023/01/30 01:47:47;;;;;;;26.23;11.82;;;6.80;99.90;;;;;;5058003;28;20137;-63
2023/01/30 01:50:39;;;;;;;19.23;10.00;;;6.80;99.90;;;;;;5050750;28;20038;-61
2023/01/30 01:53:07;;;;;;;18.08;10.07;;;6.80;99.90;;;;;;5046568;28;20075;-64
2023/01/30 01:55:33;;;;;;;19.65;9.52;;;6.90;99.90;;;;;;5068325;28;20123;-63
2023/01/30 01:58:14;;;;;;;17.80;8.35;;;6.90;99.90;;;;;;5068435;28;20491;-64
2023/01/30 02:00:40;;;;;;;17.75;8.23;;;6.90;99.90;;;;;;5037331;28;20047;-65
2023/01/30 02:03:09;;;;;;;19.85;7.30;;;6.90;99.90;;;;;;5020847;28;20470;-62
2023/01/30 02:05:40;;;;;;;16.90;7.78;;;6.90;99.90;;;;;;5046090;28;20406;-63
2023/01/30 02:08:14;;;;;;;16.67;7.53;;;7.00;99.90;;;;;;5067639;28;20295;-62
2023/01/30 02:10:44;;;;;;;16.80;6.90;;;6.90;99.90;;;;;;5038872;28;20491;-64
2023/01/30 02:13:09;;;;;;;18.00;6.80;;;7.00;99.90;;;;;;5067208;28;20028;-64
2023/01/30 02:15:35;;;;;;;16.30;6.13;;;7.00;99.90;;;;;;5052690;28;20037;-63
2023/01/30 02:18:01;;;;;;;13.07;6.05;;;7.00;99.90;;;;;;5064795;28;20036;-63
2023/01/30 02:21:07;;;;;;;16.25;6.32;;;7.00;99.90;;;;;;5041968;28;20064;-63
2023/01/30 02:24:01;;;;;;;12.38;5.43;;;7.00;99.90;;;;;;5035620;28;20072;-64
2023/01/30 02:26:55;;;;;;;12.70;5.03;;;7.00;99.90;;;;;;5044087;28;20115;-64
2023/01/30 02:29:51;;;;;;;17.55;5.88;;;7.00;99.90;;;;;;5063702;28;20041;-63
2023/01/30 02:32:54;;;;;;;14.27;5.65;;;6.90;99.90;;;;;;5075972;28;20123;-63
2023/01/30 02:35:34;;;;;;;11.68;4.35;;;6.90;99.90;;;;;;5041082;28;20037;-64
2023/01/30 02:38:51;;;;;;;10.02;4.10;;;6.90;99.90;;;;;;5049608;28;20497;-64
2023/01/30 02:41:28;;;;;;;13.23;4.78;;;7.00;99.90;;;;;;4985359;28;20048;-63
2023/01/30 02:44:05;;;;;;;12.23;4.40;;;7.00;99.90;;;;;;5051920;28;20051;-64
2023/01/30 02:46:42;;;;;;;12.02;4.63;;;7.00;99.90;;;;;;5064803;28;20406;-64
2023/01/30 02:49:20;;;;;;;12.18;4.50;;;7.00;99.90;;;;;;5064244;28;20430;-63
2023/01/30 02:51:48;;;;;;;12.73;4.10;;;7.00;99.90;;;;;;5051423;28;20084;-63
2023/01/30 02:54:14;;;;;;;12.13;4.57;;;7.00;99.90;;;;;;5069840;28;20051;-62
2023/01/30 02:56:59;;;;;;;13.68;4.57;;;6.90;99.90;;;;;;5036997;28;20041;-63
2023/01/30 02:59:38;;;;;;;12.52;4.50;;;6.90;99.90;;;;;;5052981;28;20056;-63
2023/01/30 03:02:13;;;;;;;15.00;4.40;;;6.90;99.90;;;;;;5068800;28;20048;-64
2023/01/30 03:05:02;;;;;;;10.68;4.20;;;6.90;99.90;;;;;;5053904;28;20041;-64
2023/01/30 03:07:34;;;;;;;18.35;4.25;;;6.90;99.90;;;;;;5067677;28;20039;-62
2023/01/30 03:10:05;;;;;;;18.97;5.13;;;7.00;99.90;;;;;;5044457;28;20044;-64
2023/01/30 03:12:31;;;;;;;18.05;5.25;;;6.90;99.90;;;;;;5077489;28;20047;-64
2023/01/30 03:15:22;;;;;;;15.98;4.70;;;6.90;99.90;;;;;;5057582;28;20029;-64
2023/01/30 03:17:48;;;;;;;12.52;4.10;;;6.90;99.90;;;;;;5067197;28;20040;-64
2023/01/30 03:20:17;;;;;;;14.35;4.80;;;6.90;99.90;;;;;;5046311;28;20177;-64
2023/01/30 03:22:43;;;;;;;17.02;4.32;;;6.90;99.90;;;;;;5058038;28;20037;-63
2023/01/30 03:25:12;;;;;;;15.80;4.68;;;6.90;99.90;;;;;;5065483;28;20037;-61
2023/01/30 03:27:39;;;;;;;16.30;4.78;;;6.90;99.90;;;;;;5042757;28;20040;-64
2023/01/30 03:30:05;;;;;;;18.73;5.35;;;6.90;99.90;;;;;;5069052;28;20052;-62
2023/01/30 03:32:31;;;;;;;15.35;4.60;;;6.90;99.90;;;;;;5062912;28;20041;-63
2023/01/30 03:34:56;;;;;;;13.95;4.22;;;6.90;99.90;;;;;;5064802;28;20036;-64
2023/01/30 03:37:22;;;;;;;15.63;4.43;;;6.90;99.90;;;;;;5050059;28;20125;-63
2023/01/30 03:39:47;;;;;;;16.42;4.57;;;6.90;99.90;;;;;;5049182;28;20040;-64
2023/01/30 03:42:13;;;;;;;19.63;5.60;;;6.90;99.90;;;;;;5057045;28;20070;-63
2023/01/30 03:44:39;;;;;;;16.35;4.90;;;6.90;99.90;;;;;;5073705;28;20040;-63
2023/01/30 03:47:05;;;;;;;12.57;4.38;;;6.90;99.90;;;;;;5064544;28;20043;-64
2023/01/30 03:49:31;;;;;;;15.15;5.00;;;7.00;99.90;;;;;;5072463;28;20351;-62
2023/01/30 03:51:56;;;;;;;18.33;5.80;;;7.00;99.90;;;;;;5062224;28;20430;-64
2023/01/30 03:54:22;;;;;;;24.05;5.30;;;7.00;99.90;;;;;;5046543;28;20036;-63
2023/01/30 03:56:47;;;;;;;15.68;5.25;;;7.00;99.90;;;;;;5064135;28;20072;-63
2023/01/30 03:59:13;;;;;;;17.50;4.80;;;7.00;99.90;;;;;;5071244;28;20127;-64
2023/01/30 04:01:38;;;;;;;21.55;5.07;;;7.00;99.90;;;;;;5064016;28;20314;-63
2023/01/30 04:04:04;;;;;;;19.92;5.07;;;7.00;99.90;;;;;;5045759;28;20063;-64
2023/01/30 04:06:30;;;;;;;19.60;4.85;;;7.00;99.90;;;;;;5047261;28;20044;-63
2023/01/30 04:08:55;;;;;;;16.67;4.70;;;7.00;99.90;;;;;;5072637;28;20440;-63
2023/01/30 04:11:21;;;;;;;17.27;4.88;;;7.00;99.90;;;;;;5070484;28;20094;-64
2023/01/30 04:13:47;;;;;;;16.17;4.35;;;7.00;99.90;;;;;;5051182;28;20045;-64
2023/01/30 04:16:25;;;;;;;22.45;5.43;;;7.00;99.90;;;;;;5061947;28;20510;-64
2023/01/30 04:18:51;;;;;;;18.48;5.05;;;7.00;99.90;;;;;;5062861;28;20059;-64
2023/01/30 04:21:17;;;;;;;20.80;4.47;;;6.90;99.90;;;;;;5065788;28;20032;-64
2023/01/30 04:23:43;;;;;;;16.75;4.25;;;7.00;99.90;;;;;;5054881;28;20077;-64
2023/01/30 04:26:10;;;;;;;18.67;4.70;;;7.20;99.90;;;;;;5068825;28;20032;-63
2023/01/30 04:28:36;;;;;;;17.98;4.63;;;7.00;99.90;;;;;;5046195;28;20033;-63
2023/01/30 04:31:03;;;;;;;17.88;4.47;;;7.00;99.90;;;;;;5070480;28;20072;-61
2023/01/30 04:33:28;;;;;;;19.08;4.30;;;7.00;99.90;;;;;;5051607;28;20057;-63
2023/01/30 04:35:56;;;;;;;19.88;4.55;;;7.00;99.90;;;;;;5047749;28;20058;-63
2023/01/30 04:38:22;;;;;;;21.77;4.97;;;7.00;99.90;;;;;;5058482;28;20029;-64
2023/01/30 04:40:52;;;;;;;16.70;4.47;;;7.00;99.90;;;;;;5065823;28;20467;-63
2023/01/30 04:43:20;;;;;;;20.58;4.50;;;7.00;99.90;;;;;;5039567;28;20048;-63
2023/01/30 04:45:47;;;;;;;20.77;4.00;;;7.00;99.90;;;;;;5049612;28;20558;-64
2023/01/30 04:48:13;;;;;;;18.25;4.30;;;6.90;99.90;;;;;;5044340;28;20041;-62
2023/01/30 04:50:40;;;;;;;22.80;3.95;;;6.90;99.90;;;;;;5071458;28;20401;-63
2023/01/30 04:53:06;;;;;;;18.35;4.03;;;7.00;99.90;;;;;;5057199;28;20498;-64
2023/01/30 04:55:32;;;;;;;20.30;3.83;;;6.90;99.90;;;;;;5039694;28;20537;-64
2023/01/30 04:57:58;;;;;;;17.17;3.45;;;6.90;99.90;;;;;;5045032;28;20079;-63
2023/01/30 05:00:24;;;;;;;22.63;3.80;;;6.90;99.90;;;;;;5059808;28;20449;-64
2023/01/30 05:02:50;;;;;;;14.93;3.15;;;6.90;99.90;;;;;;5065014;28;20076;-63
2023/01/30 05:05:16;;;;;;;17.17;3.15;;;6.80;99.90;;;;;;5063377;28;20033;-63
2023/01/30 05:07:42;;;;;;;18.63;3.38;;;6.80;99.90;;;;;;5046861;28;20041;-63
2023/01/30 05:10:08;;;;;;;18.73;4.13;;;6.80;99.90;;;;;;5048764;28;20406;-61
2023/01/30 05:12:33;;;;;;;18.60;3.53;;;6.70;99.90;;;;;;5045598;28;20041;-64
2023/01/30 05:15:00;;;;;;;16.48;3.40;;;6.70;99.90;;;;;;5053711;28;20439;-63
2023/01/30 05:17:26;;;;;;;19.00;3.72;;;6.60;99.90;;;;;;5047563;28;20040;-61
2023/01/30 05:19:51;;;;;;;13.52;3.28;;;6.60;99.90;;;;;;5065589;28;20703;-64
2023/01/30 05:22:17;;;;;;;22.90;3.67;;;6.60;99.90;;;;;;5047550;28;20228;-63
2023/01/30 05:24:42;;;;;;;15.13;3.35;;;6.60;99.90;;;;;;5050749;28;20483;-63
2023/01/30 05:27:08;;;;;;;19.95;3.97;;;6.50;99.90;;;;;;5065622;28;20041;-63
2023/01/30 05:29:34;;;;;;;22.65;3.83;;;6.50;99.90;;;;;;5065877;28;20497;-62
2023/01/30 05:31:59;;;;;;;17.00;3.85;;;6.50;99.90;;;;;;5052553;28;20128;-63
2023/01/30 05:34:25;;;;;;;20.80;4.13;;;6.40;99.90;;;;;;5061215;28;20119;-63
2023/01/30 05:36:50;;;;;;;22.30;3.88;;;6.40;99.90;;;;;;5026920;28;20398;-63
2023/01/30 05:39:16;;;;;;;19.15;4.35;;;6.50;99.90;;;;;;5046625;28;20036;-61
2023/01/30 05:41:42;;;;;;;20.23;3.60;;;6.30;99.90;;;;;;5068297;28;20131;-63
2023/01/30 05:44:07;;;;;;;23.77;4.03;;;6.30;99.90;;;;;;5061178;28;20056;-64
2023/01/30 05:46:33;;;;;;;18.20;3.95;;;6.30;99.90;;;;;;5077987;28;20048;-63
2023/01/30 05:48:58;;;;;;;25.52;4.40;;;6.20;99.90;;;;;;5070582;28;20465;-63
2023/01/30 05:51:26;;;;;;;20.70;4.00;;;6.20;99.90;;;;;;5057285;28;20032;-64
2023/01/30 05:53:52;;;;;;;21.83;3.83;;;6.20;99.90;;;;;;5058692;28;20072;-64
2023/01/30 05:56:18;;;;;;;25.48;3.50;;;6.20;99.90;;;;;;5058040;28;20033;-64
2023/01/30 05:58:48;;;;;;;24.23;4.28;;;6.10;99.90;;;;;;5061529;28;20119;-64
2023/01/30 06:01:14;;;;;;;23.25;4.30;;;6.10;99.90;;;;;;5067757;28;20044;-64
2023/01/30 06:03:40;;;;;;;20.00;3.85;;;6.10;99.90;;;;;;5054462;28;20036;-63
2023/01/30 06:06:06;;;;;;;21.20;3.63;;;6.00;99.90;;;;;;5060137;28;20060;-63
2023/01/30 06:08:32;;;;;;;23.52;4.72;;;6.00;99.90;;;;;;5073973;28;20040;-63
2023/01/30 06:11:08;;;;;;;27.73;4.30;;;6.00;99.90;;;;;;5065284;28;20047;-64
2023/01/30 06:13:34;;;;;;;19.95;4.72;;;5.90;99.90;;;;;;5044546;28;20127;-64
2023/01/30 06:15:59;;;;;;;15.60;3.30;;;5.90;99.90;;;;;;5055660;28;20117;-63
2023/01/30 06:18:25;;;;;;;22.63;3.70;;;6.00;99.90;;;;;;5069138;28;20066;-61
2023/01/30 06:20:52;;;;;;;24.60;4.00;;;5.90;99.90;;;;;;5050581;28;20036;-64
2023/01/30 06:23:18;;;;;;;18.52;3.75;;;5.90;99.90;;;;;;5065080;28;20032;-63
2023/01/30 06:25:45;;;;;;;25.15;3.90;;;5.80;99.90;;;;;;5064606;28;20047;-64
2023/01/30 06:28:11;;;;;;;19.42;3.47;;;5.80;99.90;;;;;;5053174;28;20036;-64
2023/01/30 06:30:37;;;;;;;29.70;4.28;;;5.80;99.90;;;;;;5063059;28;20195;-61
2023/01/30 06:33:03;;;;;;;20.55;4.10;;;5.80;99.90;;;;;;5064196;28;20544;-62
2023/01/30 06:35:29;;;;;;;22.17;3.45;;;5.80;99.90;;;;;;5062479;28;20127;-64
2023/01/30 06:37:55;;;;;;;18.35;3.38;;;5.70;99.90;;;;;;5061574;28;20411;-63
2023/01/30 06:40:20;;;;;;;19.05;3.78;;;5.70;99.90;;;;;;5045150;28;20375;-64
2023/01/30 06:42:47;;;;;;;17.85;3.08;;;5.70;99.90;;;;;;5066865;28;20032;-60
2023/01/30 06:45:18;;;;;;;31.38;3.95;;;5.70;99.90;;;;;;5046144;28;20037;-63
2023/01/30 06:47:54;;;;;;;22.67;4.07;;;5.70;99.90;;;;;;5042264;28;20127;-63
2023/01/30 06:50:23;;;;;;;17.80;3.53;;;5.70;99.90;;;;;;5067700;28;20075;-62
2023/01/30 06:52:49;;;;;;;21.35;3.85;;;5.70;99.90;;;;;;5065078;28;20130;-60
2023/01/30 06:55:17;;;;;;;23.58;3.72;;;5.80;99.90;;;;;;5041582;28;20511;-64
2023/01/30 06:57:44;;;;;;;20.35;3.35;;;5.80;99.90;;;;;;5062988;28;20494;-64
2023/01/30 07:00:16;;;;;;;23.77;3.65;;;5.80;99.90;;;;;;5047244;28;20040;-64
2023/01/30 07:02:41;;;;;;;22.92;3.75;;;5.90;99.90;;;;;;5055258;28;20040;-63
2023/01/30 07:05:08;;;;;;;20.00;3.83;;;5.90;99.90;;;;;;5059922;28;20101;-64
2023/01/30 07:07:35;;;;;;;17.45;3.75;;;5.90;99.90;;;;;;5061045;28;20044;-63
2023/01/30 07:10:01;;;;;;;18.48;3.35;;;5.90;99.90;;;;;;5059694;28;20296;-64
2023/01/30 07:12:27;;;;;;;22.92;3.92;;;5.80;99.90;;;;;;5045370;28;20049;-63
2023/01/30 07:14:53;;;;;;;27.08;4.53;;;5.80;99.90;;;;;;5065128;28;20495;-63
2023/01/30 07:17:19;;;;;;;20.98;3.15;;;5.70;99.90;;;;;;5064914;28;20426;-62
2023/01/30 07:19:45;;;;;;;19.70;3.20;;;5.70;99.90;;;;;;5045877;28;20102;-61
2023/01/30 07:22:11;;;;;;;28.83;4.55;;;5.70;99.90;;;;;;5066717;28;20513;-63
2023/01/30 07:24:38;;;;;;;28.65;3.45;;;5.70;99.90;;;;;;5070398;28;20036;-62
2023/01/30 07:27:07;;;;;;;19.83;3.40;;;5.70;99.90;;;;;;5068712;28;20530;-64
2023/01/30 07:29:34;;;;;;;29.40;4.00;;;5.70;99.90;;;;;;5065514;28;20059;-64
2023/01/30 07:32:01;;;;;;;27.23;4.07;;;5.70;99.90;;;;;;5062208;28;20033;-64
2023/01/30 07:34:26;;;;;;;24.13;3.67;;;5.70;99.90;;;;;;5060406;28;20058;-64
2023/01/30 07:36:52;;;;;;;22.70;3.33;;;5.70;99.90;;;;;;5066366;28;20040;-64
2023/01/30 07:39:18;;;;;;;19.25;3.75;;;5.70;99.90;;;;;;5054050;28;20036;-63
2023/01/30 07:41:43;;;;;;;23.17;4.07;;;5.70;99.90;;;;;;5070605;28;20108;-64
2023/01/30 07:44:09;;;;;;;27.30;4.18;;;5.70;99.90;;;;;;5071159;28;20044;-63
2023/01/30 07:46:35;;;;;;;26.55;3.75;;;5.70;99.90;;;;;;5066329;28;20037;-63
2023/01/30 07:49:01;;;;;;;29.38;4.13;;;5.70;99.90;;;;;;5079389;28;20036;-64
2023/01/30 07:51:27;;;;;;;21.33;3.20;;;5.70;99.90;;;;;;5064192;28;20398;-64
2023/01/30 07:53:53;;;;;;;29.88;4.50;;;5.70;99.90;;;;;;5076970;28;20036;-64
2023/01/30 07:56:22;;;;;;;16.38;2.70;;;5.70;99.90;;;;;;5040992;28;20079;-63
2023/01/30 07:58:48;;;;;;;16.75;3.50;;;5.80;99.90;;;;;;5045003;28;20049;-64
2023/01/30 08:01:14;;;;;;;27.45;3.53;;;5.80;99.90;;;;;;5064528;28;20036;-64
2023/01/30 08:03:40;;;;;;;20.55;3.30;;;5.80;99.90;;;;;;5052856;28;20098;-63
2023/01/30 08:06:06;;;;;;;21.20;3.80;;;6.00;99.90;;;;;;5066488;28;20514;-64
2023/01/30 08:08:32;;;;;;;20.75;3.92;;;5.80;99.90;;;;;;5056794;28;20046;-64
2023/01/30 08:10:57;;;;;;;23.17;3.92;;;5.80;99.90;;;;;;5078718;28;20490;-63
2023/01/30 08:13:23;;;;;;;26.05;4.63;;;5.90;99.90;;;;;;5044423;28;20048;-63
2023/01/30 08:15:49;;;;;;;35.10;4.00;;;5.90;99.90;;;;;;5047460;28;20494;-63
2023/01/30 08:18:15;;;;;;;31.38;4.45;;;5.90;99.90;;;;;;5053139;28;20075;-63
2023/01/30 08:20:41;;;;;;;25.73;4.13;;;6.00;99.90;;;;;;5059502;28;20059;-62
2023/01/30 08:23:07;;;;;;;19.42;3.80;;;6.00;99.90;;;;;;5052823;28;20076;-61
2023/01/30 08:25:34;;;;;;;20.92;3.72;;;6.10;99.90;;;;;;5062879;28;20100;-62
2023/01/30 08:28:00;;;;;;;23.08;4.07;;;6.10;99.90;;;;;;5058123;28;20521;-63
2023/01/30 08:30:29;;;;;;;25.50;4.32;;;6.20;99.90;;;;;;5054100;28;20064;-62
2023/01/30 08:32:55;;;;;;;23.85;4.18;;;6.10;99.90;;;;;;5067380;28;20071;-62
2023/01/30 08:35:20;;;;;;;24.52;4.53;;;6.20;99.90;;;;;;5066971;28;20033;-62
2023/01/30 08:37:46;;;;;;;23.73;4.50;;;6.10;99.90;;;;;;5067899;28;20028;-62
2023/01/30 08:40:12;;;;;;;22.80;3.78;;;6.20;99.90;;;;;;5052354;28;20090;-63
2023/01/30 08:42:38;;;;;;;24.90;4.38;;;6.20;99.90;;;;;;5056827;28;20044;-63
2023/01/30 08:45:04;;;;;;;27.38;4.15;;;6.20;99.90;;;;;;5069582;28;20048;-61
2023/01/30 08:47:30;;;;;;;23.83;4.47;;;6.20;99.90;;;;;;5061027;28;20091;-61
2023/01/30 08:49:55;;;;;;;21.10;3.70;;;6.20;99.90;;;;;;5067286;28;20068;-61
2023/01/30 08:52:21;;;;;;;18.77;3.72;;;6.20;99.90;;;;;;5060307;28;20071;-63
2023/01/30 08:54:46;;;;;;;23.30;4.13;;;6.30;99.90;;;;;;5040689;28;20043;-63
2023/01/30 08:57:15;;;;;;;26.70;4.10;;;6.20;99.90;;;;;;5059071;28;20029;-63
2023/01/30 08:59:41;;;;;;;22.92;3.53;;;6.30;99.90;;;;;;5073477;28;20490;-63
2023/01/30 09:02:11;;;;;;;26.15;4.10;;;6.30;99.90;;;;;;5045135;28;20083;-63
2023/01/30 09:04:37;;;;;;;20.05;4.55;;;6.30;99.90;;;;;;5069008;28;20490;-62
2023/01/30 09:07:02;;;;;;;27.17;4.38;;;6.30;99.90;;;;;;5059246;28;20048;-61
2023/01/30 09:09:29;;;;;;;24.88;3.45;;;6.30;99.90;;;;;;5043275;28;20070;-62
2023/01/30 09:11:54;;;;;;;18.30;3.85;;;6.60;99.90;;;;;;5041179;28;20129;-61
2023/01/30 09:14:20;;;;;;;30.38;4.90;;;6.40;99.90;;;;;;5074413;28;20123;-63
2023/01/30 09:16:47;;;;;;;24.65;4.35;;;6.40;99.90;;;;;;5065873;28;20032;-63
2023/01/30 09:19:13;;;;;;;20.88;4.00;;;6.50;99.90;;;;;;5063078;28;20041;-62
2023/01/30 09:21:38;;;;;;;21.80;3.90;;;6.50;99.90;;;;;;5064943;28;20052;-60
2023/01/30 09:24:05;;;;;;;27.00;4.20;;;6.50;99.90;;;;;;5063289;28;20043;-63
2023/01/30 09:26:31;;;;;;;28.85;4.40;;;6.50;99.90;;;;;;5060921;28;20028;-62
2023/01/30 09:28:57;;;;;;;22.52;3.85;;;6.60;99.90;;;;;;5064190;28;20521;-61
2023/01/30 09:31:22;;;;;;;24.23;3.33;;;6.60;99.90;;;;;;5074132;28;20039;-63
2023/01/30 09:33:48;;;;;;;24.88;3.67;;;6.60;99.90;;;;;;5074845;28;20447;-63
2023/01/30 09:36:14;;;;;;;19.00;3.50;;;6.60;99.90;;;;;;5054904;28;20033;-63
2023/01/30 09:38:39;;;;;;;28.58;4.35;;;6.60;99.90;;;;;;5055242;28;20028;-62
2023/01/30 09:41:29;;;;;;;24.10;4.38;;;6.70;99.90;;;;;;5045757;28;20375;-61
2023/01/30 09:44:22;;;;;;;27.17;3.58;;;6.60;99.90;;;;;;5061972;28;20497;-62
2023/01/30 09:46:53;;;;;;;35.70;4.40;;;6.70;99.90;;;;;;5057830;28;20510;-63
2023/01/30 09:49:35;;;;;;;25.08;4.63;;;6.70;99.90;;;;;;5056414;28;20044;-63
2023/01/30 09:52:58;;;;;;;23.92;4.13;;;6.70;99.90;;;;;;5065668;28;20195;-63
2023/01/30 09:55:28;;;;;;;30.90;4.10;;;6.80;99.90;;;;;;4996684;28;20042;-61
2023/01/30 09:57:57;;;;;;;19.60;4.05;;;6.90;99.90;;;;;;5038356;28;20143;-61
2023/01/30 10:00:41;;;;;;;23.17;4.82;;;6.90;99.90;;;;;;5044722;28;20096;-63
2023/01/30 10:03:20;;;;;;;27.02;4.43;;;6.90;99.90;;;;;;5062777;28;20070;-63
2023/01/30 10:05:54;;;;;;;22.98;4.20;;;7.00;99.90;;;;;;5055725;28;20124;-63
2023/01/30 10:08:32;;;;;;;26.45;4.72;;;7.00;99.90;;;;;;5042387;28;20094;-62
2023/01/30 10:11:13;;;;;;;29.63;4.80;;;7.00;99.90;;;;;;5054136;28;20123;-62
2023/01/30 10:13:45;;;;;;;29.77;4.28;;;7.00;99.90;;;;;;5058880;28;20439;-63
2023/01/30 10:16:25;;;;;;;20.92;4.15;;;7.10;99.90;;;;;;5037271;28;20041;-63
2023/01/30 10:19:00;;;;;;;32.97;4.85;;;7.10;99.90;;;;;;5040922;28;20697;-63
2023/01/30 10:21:53;;;;;;;24.10;4.47;;;7.20;99.90;;;;;;5044823;28;20064;-60
2023/01/30 10:24:42;;;;;;;28.95;4.32;;;7.20;99.90;;;;;;5061040;28;20410;-63
2023/01/30 10:27:15;;;;;;;21.33;4.10;;;7.20;99.90;;;;;;5057960;28;21616;-60
2023/01/30 10:29:43;;;;;;;;;;;7.30;99.90;;;;;;5065989;28;20041;-63
2023/01/30 10:32:17;;;;;;;29.92;4.93;;;7.30;99.90;;;;;;5047905;28;20286;-63
2023/01/30 10:34:49;;;;;;;25.02;3.95;;;7.30;99.90;;;;;;5071589;28;20384;-63
2023/01/30 10:37:23;;;;;;;26.45;4.13;;;7.40;99.90;;;;;;5059370;28;20129;-63
2023/01/30 10:40:16;;;;;;;25.05;4.57;;;7.40;99.90;;;;;;5049944;28;20083;-59
2023/01/30 10:42:44;;;;;;;;;;;7.50;99.90;;;;;;5061367;28;20067;-63
2023/01/30 10:45:16;;;;;;;26.42;4.75;;;7.50;99.90;;;;;;5053210;28;19962;-63
2023/01/30 10:47:45;;;;;;;;;;;7.50;99.90;;;;;;5055522;28;20457;-63
2023/01/30 10:50:18;;;;;;;23.48;4.15;;;7.50;99.90;;;;;;5067987;28;19982;-62
2023/01/30 10:53:11;;;;;;;24.08;3.78;;;7.60;99.90;;;;;;5057513;28;20041;-62
2023/01/30 10:55:44;;;;;;;28.55;4.03;;;7.50;99.90;;;;;;5062929;28;20371;-63
2023/01/30 10:58:22;;;;;;;28.90;4.88;;;8.10;99.90;;;;;;5044322;28;20044;-63
2023/01/30 11:00:57;;;;;;;24.45;3.97;;;7.70;99.90;;;;;;5049974;28;20094;-60
2023/01/30 11:03:32;;;;;;;26.08;4.22;;;7.70;99.90;;;;;;5037958;28;20048;-61
2023/01/30 11:06:10;;;;;;;23.80;4.13;;;7.80;99.90;;;;;;5065469;28;20056;-63
2023/01/30 11:08:36;;;;;;;27.45;4.80;;;7.70;99.90;;;;;;5049069;28;20123;-62
2023/01/30 11:11:32;;;;;;;31.92;5.07;;;7.70;99.90;;;;;;5071305;28;20132;-61
2023/01/30 11:14:09;;;;;;;25.00;4.43;;;7.70;99.90;;;;;;5071363;28;20048;-61
2023/01/30 11:16:53;;;;;;;21.60;3.63;;;7.70;99.90;;;;;;5080829;28;20060;-62
2023/01/30 11:19:24;;;;;;;27.38;4.47;;;7.80;99.90;;;;;;5052732;28;20037;-62
2023/01/30 11:21:53;;;;;;;30.27;4.25;;;7.70;99.90;;;;;;5068658;28;20146;-63
2023/01/30 11:24:28;;;;;;;24.98;4.70;;;7.80;99.90;;;;;;5065944;28;20403;-62
2023/01/30 11:26:55;;;;;;;23.23;4.15;;;7.80;99.90;;;;;;5073752;28;20391;-62
2023/01/30 11:29:26;;;;;;;35.30;4.78;;;7.80;99.90;;;;;;5068447;28;20074;-62
2023/01/30 11:31:53;;;;;;;25.23;4.40;;;7.80;99.90;;;;;;5069479;28;20041;-60
2023/01/30 11:34:21;;;;;;;27.25;4.20;;;7.80;99.90;;;;;;5067276;28;20102;-63
2023/01/30 11:36:48;;;;;;;22.10;4.80;;;7.80;99.90;;;;;;5054303;28;20045;-62
2023/01/30 11:39:15;;;;;;;27.27;5.25;;;7.80;99.90;;;;;;5070210;28;20483;-62
2023/01/30 11:42:00;;;;;;;26.65;4.85;;;7.80;99.90;;;;;;5045170;28;20044;-61
2023/01/30 11:44:29;;;;;;;24.63;4.28;;;7.70;99.90;;;;;;5066953;28;20045;-63
2023/01/30 11:47:00;;;;;;;26.98;4.50;;;7.80;99.90;;;;;;5061290;28;20041;-63
2023/01/30 11:49:32;;;;;;;22.90;4.93;;;7.80;99.90;;;;;;5061510;28;20033;-63
2023/01/30 11:51:59;;;;;;;28.50;5.53;;;8.00;99.90;;;;;;5078741;28;20048;-63
2023/01/30 11:54:31;;;;;;;22.02;4.30;;;8.10;99.90;;;;;;5072359;28;20035;-62
2023/01/30 11:57:00;;;;;;;20.02;3.75;;;8.10;99.90;;;;;;5069503;28;20426;-60
2023/01/30 11:59:55;;;;;;;26.55;4.60;;;8.00;99.90;;;;;;5064386;28;20082;-62
2023/01/30 12:02:39;;;;;;;21.98;4.07;;;8.00;99.90;;;;;;5030191;28;20047;-62
2023/01/30 12:05:23;;;;;;;32.83;5.03;;;7.90;99.90;;;;;;5067592;28;20054;-63
2023/01/30 12:07:51;;;;;;;24.63;4.65;;;7.90;99.90;;;;;;5045381;28;20124;-62
2023/01/30 12:10:29;;;;;;;28.05;5.90;;;7.80;99.90;;;;;;5068351;28;20036;-62
2023/01/30 12:13:00;;;;;;;32.85;5.47;;;7.80;99.90;;;;;;5045747;28;20087;-60
2023/01/30 12:15:28;;;;;;;28.38;4.95;;;7.80;99.90;;;;;;5062288;28;20273;-60
2023/01/30 12:18:15;;;;;;;24.08;4.22;;;7.80;99.90;;;;;;5039338;28;20395;-63
2023/01/30 12:21:11;;;;;;;24.33;4.78;;;7.80;99.90;;;;;;5065272;28;20082;-63
2023/01/30 12:24:12;;;;;;;25.25;4.38;;;7.80;99.90;;;;;;5058929;28;20126;-63
2023/01/30 12:27:29;;;;;;;22.73;4.13;;;7.70;99.90;;;;;;5057628;28;20515;-63
2023/01/30 12:30:29;;;;;;;25.30;4.68;;;7.80;99.90;;;;;;5038793;28;20059;-63
2023/01/30 12:32:59;;;;;;;18.13;3.95;;;7.90;99.90;;;;;;5061871;28;20119;-63
2023/01/30 12:35:45;;;;;;;22.92;3.92;;;7.90;99.90;;;;;;5067326;28;20040;-63
2023/01/30 12:38:28;;;;;;;17.58;3.25;;;7.80;99.90;;;;;;5063638;28;20032;-63
2023/01/30 12:41:20;;;;;;;;;;;7.70;99.90;;;;;;5057595;28;20051;-62
2023/01/30 12:43:55;;;;;;;18.35;2.50;;;7.60;99.90;;;;;;5066013;28;19995;-63
2023/01/30 12:46:38;;;;;;;11.63;2.25;;;7.90;99.90;;;;;;5070006;28;20559;-62
2023/01/30 12:49:42;;;;;;;11.95;2.40;;;7.30;99.90;;;;;;5063478;28;20044;-61
2023/01/30 12:52:13;;;;;;;14.02;2.78;;;7.30;99.90;;;;;;5068163;28;20124;-63
2023/01/30 12:54:46;;;;;;;11.85;2.25;;;7.30;99.90;;;;;;5059242;28;20041;-63
2023/01/30 12:57:38;;;;;;;14.40;2.40;;;7.30;99.90;;;;;;5063074;28;20377;-63
2023/01/30 13:00:07;;;;;;;18.20;3.20;;;7.40;99.90;;;;;;5011652;28;20056;-62
2023/01/30 13:02:41;;;;;;;14.48;2.67;;;7.50;99.90;;;;;;5060800;28;20386;-63
2023/01/30 13:05:20;;;;;;;15.48;2.88;;;7.60;99.90;;;;;;5046449;28;20105;-63
2023/01/30 13:08:17;;;;;;;18.58;3.05;;;7.60;99.90;;;;;;5048991;28;20044;-63
2023/01/30 13:11:01;;;;;;;14.45;2.63;;;7.70;99.90;;;;;;5066763;28;20049;-62
2023/01/30 13:13:49;;;;;;;15.35;3.13;;;7.80;99.90;;;;;;5059555;28;20083;-64